Time;durP1;ratioP1;P1;durP2;ratioP2;P2;SDS_P1;SDS_P2;PMS_P1;PMS_P2;Temp;Humidity;BMP_temperature;BMP_pressure;BME280_temperature;BME280_humidity;BME280_pressure;Samples;Min_cycle;Max_cycle;Signal;HPM_P1;HPM_P2
2023/09/11 05:39:43;;;;;;;19.17;7.47;;;;;;;20.21;69.83;100435.09;5028173;28;20662;-72
2023/09/11 05:48:58;;;;;;;24.27;9.13;;;;;;;20.02;70.25;100441.34;5026817;28;20215;-73
2023/09/11 06:12:48;;;;;;;27.50;8.50;;;;;;;20.27;70.40;100453.91;4868979;29;20235;-73
2023/09/11 06:45:31;;;;;;;22.13;8.77;;;;;;;20.69;70.01;100472.44;5011451;28;20209;-73
2023/09/11 07:31:58;;;;;;;27.00;9.23;;;;;;;21.72;68.07;100445.00;5020494;28;20200;-73
2023/09/11 07:38:16;;;;;;;22.20;9.10;;;;;;;21.82;68.32;100454.47;5017432;28;20423;-72
2023/09/11 07:41:04;;;;;;;24.33;9.90;;;;;;;21.91;68.43;100456.66;5030659;28;20196;-73
2023/09/11 07:43:54;;;;;;;24.30;9.97;;;;;;;22.00;67.67;100458.06;5027875;28;20201;-73
2023/09/11 07:46:49;;;;;;;22.57;9.17;;;;;;;22.10;67.67;100458.38;5031977;28;20572;-72
2023/09/11 07:49:21;;;;;;;32.00;8.47;;;;;;;22.19;67.06;100455.38;5028489;28;20286;-73
2023/09/11 07:52:32;;;;;;;18.37;8.30;;;;;;;22.28;67.23;100454.03;5031281;28;20197;-69
2023/09/11 07:55:15;;;;;;;27.93;10.13;;;;;;;22.39;66.69;100453.28;5027251;28;20244;-72
2023/09/11 07:58:34;;;;;;;22.85;9.15;;;;;;;22.53;66.57;100458.31;5029415;28;20816;-73
2023/09/11 08:01:20;;;;;;;27.37;8.87;;;;;;;22.63;65.90;100446.97;4964105;28;20208;-72
2023/09/11 08:03:59;;;;;;;25.88;8.93;;;;;;;22.77;65.64;100459.31;5030254;28;20192;-75
2023/09/11 08:06:30;;;;;;;24.58;9.07;;;;;;;22.94;65.02;100459.50;5029680;28;20217;-74
2023/09/11 08:09:03;;;;;;;33.27;9.73;;;;;;;23.07;64.27;100461.16;5029089;28;20314;-71
2023/09/11 08:11:39;;;;;;;28.98;9.10;;;;;;;23.20;63.68;100456.41;5029587;28;20258;-74
2023/09/11 08:14:41;;;;;;;29.38;8.90;;;;;;;23.30;63.49;100458.56;5030029;28;20609;-75
2023/09/11 08:17:21;;;;;;;30.92;9.40;;;;;;;23.47;63.28;100459.53;5029961;28;20231;-74
2023/09/11 08:20:28;;;;;;;25.95;9.35;;;;;;;23.77;62.72;100464.03;5028485;28;20200;-74
2023/09/11 09:13:03;;;;;;;20.17;9.52;;;;;;;44.43;22.52;100410.16;4966053;28;20209;-73
2023/09/11 09:15:48;;;;;;;20.48;8.48;;;;;;;45.43;21.46;100410.22;4968448;28;20213;-70
2023/09/11 10:19:26;;;;;;;22.30;9.15;;;;;;;27.96;48.27;100379.06;4839370;29;20425;-74
2023/09/11 10:58:09;;;;;;;19.20;8.27;;;;;;;28.28;47.67;100348.16;4828407;29;20654;-71
2023/09/11 11:11:34;;;;;;;18.00;7.15;;;;;;;31.19;39.16;100316.00;4824042;29;20300;-72
2023/09/11 11:14:17;;;;;;;25.10;8.45;;;;;;;30.52;40.09;100319.53;4902729;29;20273;-68
2023/09/11 11:17:01;;;;;;;26.30;6.95;;;;;;;29.82;40.72;100314.06;4979886;28;20227;-71
2023/09/11 11:22:33;;;;;;;24.00;8.35;;;;;;;29.31;43.03;100302.41;4987383;28;20245;-72
2023/09/11 11:25:05;;;;;;;23.45;8.13;;;;;;;29.22;43.44;100309.53;5033427;28;20219;-74
2023/09/11 11:27:35;;;;;;;22.85;7.63;;;;;;;29.10;43.07;100303.56;5028812;28;20220;-73
2023/09/11 11:30:08;;;;;;;21.77;8.35;;;;;;;28.87;43.83;100304.91;5027877;28;20211;-68
2023/09/11 11:32:42;;;;;;;21.55;7.03;;;;;;;29.09;42.80;100305.47;5028158;28;20230;-79
2023/09/11 11:35:13;;;;;;;25.55;7.57;;;;;;;29.79;41.56;100302.88;5027970;28;20220;-77
2023/09/11 11:37:46;;;;;;;19.90;6.45;;;;;;;31.63;37.76;100302.16;5029419;28;20209;-74
2023/09/11 11:40:15;;;;;;;24.23;6.93;;;;;;;34.17;33.99;100293.31;5031898;28;20207;-76
2023/09/11 11:42:51;;;;;;;19.77;7.22;;;;;;;36.39;30.29;100296.03;5031153;28;20229;-78
2023/09/11 11:45:19;;;;;;;23.98;7.35;;;;;;;36.66;29.58;100287.44;5031478;28;20209;-75
2023/09/11 11:47:48;;;;;;;19.77;7.18;;;;;;;37.19;29.84;100289.00;5027967;28;20613;-71
2023/09/11 11:50:18;;;;;;;13.88;6.38;;;;;;;38.33;27.80;100286.97;5027944;28;20561;-80
2023/09/11 11:52:46;;;;;;;22.25;7.05;;;;;;;41.01;23.96;100284.25;5028191;28;20566;-74
2023/09/11 11:55:22;;;;;;;19.60;7.10;;;;;;;41.90;22.49;100278.97;5031863;28;20305;-73
2023/09/11 11:57:53;;;;;;;25.27;8.13;;;;;;;42.34;22.49;100285.16;5028507;28;20930;-75
2023/09/11 12:00:21;;;;;;;27.77;8.15;;;;;;;43.05;21.25;100282.97;5028737;28;20283;-76
2023/09/11 12:02:49;;;;;;;22.52;7.57;;;;;;;42.97;21.53;100276.47;5030748;28;20203;-74
2023/09/11 12:05:18;;;;;;;33.60;8.95;;;;;;;42.35;22.44;100274.81;5030975;28;20199;-73
2023/09/11 12:07:47;;;;;;;29.15;8.27;;;;;;;40.98;24.21;100287.75;5029379;28;20250;-77
2023/09/11 12:10:16;;;;;;;26.58;7.78;;;;;;;39.46;25.83;100275.59;5031384;28;20200;-77
2023/09/11 12:12:44;;;;;;;21.38;8.13;;;;;;;39.26;25.87;100282.00;5025721;28;20258;-74
2023/09/11 12:15:20;;;;;;;20.45;7.10;;;;;;;38.53;25.88;100277.03;5028219;28;20204;-76
2023/09/11 12:17:50;;;;;;;22.42;7.50;;;;;;;37.14;26.87;100284.44;5034764;28;20211;-74
2023/09/11 12:20:21;;;;;;;27.85;7.43;;;;;;;36.32;28.03;100281.91;5026080;28;20202;-73
2023/09/11 12:22:50;;;;;;;26.88;7.75;;;;;;;38.74;25.61;100263.13;5026899;28;20216;-72
2023/09/11 12:25:18;;;;;;;21.10;7.40;;;;;;;39.44;25.26;100266.78;5031913;28;20650;-75
2023/09/11 12:27:47;;;;;;;28.63;8.00;;;;;;;37.63;26.08;100268.34;5025217;28;20208;-73
2023/09/11 12:30:18;;;;;;;28.52;8.48;;;;;;;36.59;27.76;100270.53;5030085;28;20205;-76
2023/09/11 12:32:50;;;;;;;26.67;8.50;;;;;;;35.57;29.21;100263.69;5029153;28;20246;-73
2023/09/11 12:35:31;;;;;;;31.13;9.02;;;;;;;34.33;31.10;100253.34;5027585;28;20208;-75
2023/09/11 12:37:59;;;;;;;22.33;7.88;;;;;;;33.28;32.38;100256.38;5029161;28;20293;-75
2023/09/11 12:40:30;;;;;;;25.77;7.18;;;;;;;32.49;33.11;100265.38;5034521;28;20212;-74
2023/09/11 12:42:59;;;;;;;32.97;7.95;;;;;;;31.85;33.87;100262.41;5036491;28;20270;-78
2023/09/11 12:45:29;;;;;;;24.15;7.00;;;;;;;31.39;33.94;100255.53;5038256;28;20295;-74
2023/09/11 12:47:57;;;;;;;24.80;8.73;;;;;;;31.02;34.81;100255.34;5038186;28;20203;-78
2023/09/11 13:16:37;;;;;;;21.65;8.55;;;;;;;29.23;40.60;100218.34;5028073;28;20208;-74
2023/09/11 18:07:55;;;;;;;22.15;8.50;;;;;;;26.93;47.23;100116.53;4943375;29;20387;-72
2023/09/11 18:43:21;;;;;;;20.83;8.18;;;;;;;26.41;50.45;100155.31;4903033;29;20254;-72
